sensor_id;sensor_type;location;lat;lon;timestamp;temperature;humidity
16038;DHT22;8123;50.906;6.172;2023-07-13T00:02:15;16.00;99.90
16038;DHT22;8123;50.906;6.172;2023-07-13T00:04:41;16.00;99.90
16038;DHT22;8123;50.906;6.172;2023-07-13T00:07:08;15.90;99.90
16038;DHT22;8123;50.906;6.172;2023-07-13T00:09:33;16.00;99.90
16038;DHT22;8123;50.906;6.172;2023-07-13T00:11:59;15.90;99.90
16038;DHT22;8123;50.906;6.172;2023-07-13T00:14:27;15.90;99.90
16038;DHT22;8123;50.906;6.172;2023-07-13T00:16:53;15.90;99.90
16038;DHT22;8123;50.906;6.172;2023-07-13T00:19:19;15.90;99.90
16038;DHT22;8123;50.906;6.172;2023-07-13T00:21:45;15.80;99.90
16038;DHT22;8123;50.906;6.172;2023-07-13T00:24:13;15.70;99.90
16038;DHT22;8123;50.906;6.172;2023-07-13T00:26:40;15.70;99.90
16038;DHT22;8123;50.906;6.172;2023-07-13T00:29:06;15.70;99.90
16038;DHT22;8123;50.906;6.172;2023-07-13T00:31:34;15.70;99.90
16038;DHT22;8123;50.906;6.172;2023-07-13T00:34:00;15.80;99.90
16038;DHT22;8123;50.906;6.172;2023-07-13T00:36:26;15.80;99.90
16038;DHT22;8123;50.906;6.172;2023-07-13T00:38:52;15.90;99.90
16038;DHT22;8123;50.906;6.172;2023-07-13T00:41:18;15.90;99.90
16038;DHT22;8123;50.906;6.172;2023-07-13T00:43:43;16.00;99.90
16038;DHT22;8123;50.906;6.172;2023-07-13T00:46:20;16.00;99.90
16038;DHT22;8123;50.906;6.172;2023-07-13T00:48:47;16.00;99.90
16038;DHT22;8123;50.906;6.172;2023-07-13T00:51:17;16.00;99.90
16038;DHT22;8123;50.906;6.172;2023-07-13T00:53:43;16.00;99.90
16038;DHT22;8123;50.906;6.172;2023-07-13T00:56:09;15.90;99.90
16038;DHT22;8123;50.906;6.172;2023-07-13T00:58:36;15.90;99.90
16038;DHT22;8123;50.906;6.172;2023-07-13T01:01:01;15.80;99.90
16038;DHT22;8123;50.906;6.172;2023-07-13T01:03:27;15.80;99.90
16038;DHT22;8123;50.906;6.172;2023-07-13T01:05:53;15.70;99.90
16038;DHT22;8123;50.906;6.172;2023-07-13T01:08:20;15.60;99.90
16038;DHT22;8123;50.906;6.172;2023-07-13T01:10:57;15.60;99.90
16038;DHT22;8123;50.906;6.172;2023-07-13T01:13:23;15.50;99.90
16038;DHT22;8123;50.906;6.172;2023-07-13T01:15:50;15.50;99.90
16038;DHT22;8123;50.906;6.172;2023-07-13T01:18:22;15.40;99.90
16038;DHT22;8123;50.906;6.172;2023-07-13T01:23:25;15.30;99.90
16038;DHT22;8123;50.906;6.172;2023-07-13T01:25:52;15.30;99.90
16038;DHT22;8123;50.906;6.172;2023-07-13T01:28:18;15.30;99.90
16038;DHT22;8123;50.906;6.172;2023-07-13T01:30:46;15.60;99.90
16038;DHT22;8123;50.906;6.172;2023-07-13T01:33:14;15.20;99.90
16038;DHT22;8123;50.906;6.172;2023-07-13T01:35:40;15.20;99.90
16038;DHT22;8123;50.906;6.172;2023-07-13T01:38:07;15.20;99.90
16038;DHT22;8123;50.906;6.172;2023-07-13T01:40:34;15.10;99.90
16038;DHT22;8123;50.906;6.172;2023-07-13T01:43:00;15.10;99.90
16038;DHT22;8123;50.906;6.172;2023-07-13T01:45:26;15.20;99.90
16038;DHT22;8123;50.906;6.172;2023-07-13T01:47:51;15.20;99.90
16038;DHT22;8123;50.906;6.172;2023-07-13T01:50:17;15.20;99.90
16038;DHT22;8123;50.906;6.172;2023-07-13T01:52:43;15.20;99.90
16038;DHT22;8123;50.906;6.172;2023-07-13T01:55:09;15.20;99.90
16038;DHT22;8123;50.906;6.172;2023-07-13T01:57:34;15.20;99.90
16038;DHT22;8123;50.906;6.172;2023-07-13T02:00:06;15.20;99.90
16038;DHT22;8123;50.906;6.172;2023-07-13T02:02:32;15.20;99.90
16038;DHT22;8123;50.906;6.172;2023-07-13T02:04:57;15.20;99.90
16038;DHT22;8123;50.906;6.172;2023-07-13T02:07:23;15.10;99.90
16038;DHT22;8123;50.906;6.172;2023-07-13T02:09:49;15.10;99.90
16038;DHT22;8123;50.906;6.172;2023-07-13T02:12:14;15.10;99.90
16038;DHT22;8123;50.906;6.172;2023-07-13T02:14:40;15.00;99.90
16038;DHT22;8123;50.906;6.172;2023-07-13T02:17:06;15.00;99.90
16038;DHT22;8123;50.906;6.172;2023-07-13T02:19:31;14.90;99.90
16038;DHT22;8123;50.906;6.172;2023-07-13T02:21:57;14.90;99.90
16038;DHT22;8123;50.906;6.172;2023-07-13T02:24:23;14.90;99.90
16038;DHT22;8123;50.906;6.172;2023-07-13T02:26:49;14.90;99.90
16038;DHT22;8123;50.906;6.172;2023-07-13T02:29:14;14.90;99.90
16038;DHT22;8123;50.906;6.172;2023-07-13T02:31:40;14.90;99.90
16038;DHT22;8123;50.906;6.172;2023-07-13T02:34:06;14.90;99.90
16038;DHT22;8123;50.906;6.172;2023-07-13T02:36:32;14.90;99.90
16038;DHT22;8123;50.906;6.172;2023-07-13T02:39:01;14.90;99.90
16038;DHT22;8123;50.906;6.172;2023-07-13T02:41:28;14.90;99.90
16038;DHT22;8123;50.906;6.172;2023-07-13T02:43:54;14.90;99.90
16038;DHT22;8123;50.906;6.172;2023-07-13T02:46:22;14.90;99.90
16038;DHT22;8123;50.906;6.172;2023-07-13T02:48:49;14.80;99.90
16038;DHT22;8123;50.906;6.172;2023-07-13T02:51:15;14.80;99.90
16038;DHT22;8123;50.906;6.172;2023-07-13T02:53:40;14.80;99.90
16038;DHT22;8123;50.906;6.172;2023-07-13T02:56:06;14.80;99.90
16038;DHT22;8123;50.906;6.172;2023-07-13T02:58:32;14.80;99.90
16038;DHT22;8123;50.906;6.172;2023-07-13T03:01:09;14.80;99.90
16038;DHT22;8123;50.906;6.172;2023-07-13T03:03:35;14.80;99.90
16038;DHT22;8123;50.906;6.172;2023-07-13T03:06:02;14.80;99.90
16038;DHT22;8123;50.906;6.172;2023-07-13T03:08:29;14.70;99.90
16038;DHT22;8123;50.906;6.172;2023-07-13T03:11:27;14.70;99.90
16038;DHT22;8123;50.906;6.172;2023-07-13T03:13:52;14.70;99.90
16038;DHT22;8123;50.906;6.172;2023-07-13T03:16:18;14.70;99.90
16038;DHT22;8123;50.906;6.172;2023-07-13T03:18:45;14.70;99.90
16038;DHT22;8123;50.906;6.172;2023-07-13T03:21:11;14.70;99.90
16038;DHT22;8123;50.906;6.172;2023-07-13T03:23:37;14.70;99.90
16038;DHT22;8123;50.906;6.172;2023-07-13T03:26:05;14.60;99.90
16038;DHT22;8123;50.906;6.172;2023-07-13T03:28:31;14.70;99.90
16038;DHT22;8123;50.906;6.172;2023-07-13T03:31:11;14.70;99.90
16038;DHT22;8123;50.906;6.172;2023-07-13T03:33:37;14.60;99.90
16038;DHT22;8123;50.906;6.172;2023-07-13T03:36:05;14.60;99.90
16038;DHT22;8123;50.906;6.172;2023-07-13T03:38:31;14.60;99.90
16038;DHT22;8123;50.906;6.172;2023-07-13T03:40:57;14.60;99.90
16038;DHT22;8123;50.906;6.172;2023-07-13T03:43:23;14.60;99.90
16038;DHT22;8123;50.906;6.172;2023-07-13T03:45:48;14.60;99.90
16038;DHT22;8123;50.906;6.172;2023-07-13T03:48:14;14.60;99.90
16038;DHT22;8123;50.906;6.172;2023-07-13T03:50:40;14.60;99.90
16038;DHT22;8123;50.906;6.172;2023-07-13T03:53:06;14.60;99.90
16038;DHT22;8123;50.906;6.172;2023-07-13T03:55:32;14.60;99.90
16038;DHT22;8123;50.906;6.172;2023-07-13T03:58:00;14.60;99.90
16038;DHT22;8123;50.906;6.172;2023-07-13T04:00:26;14.70;99.90
16038;DHT22;8123;50.906;6.172;2023-07-13T04:02:52;14.70;99.90
16038;DHT22;8123;50.906;6.172;2023-07-13T04:05:17;14.80;99.90
16038;DHT22;8123;50.906;6.172;2023-07-13T04:07:44;14.70;99.90
16038;DHT22;8123;50.906;6.172;2023-07-13T04:10:09;14.80;99.90
16038;DHT22;8123;50.906;6.172;2023-07-13T04:12:35;14.80;99.90
16038;DHT22;8123;50.906;6.172;2023-07-13T04:15:01;14.80;99.90
16038;DHT22;8123;50.906;6.172;2023-07-13T04:17:27;14.90;99.90
16038;DHT22;8123;50.906;6.172;2023-07-13T04:19:52;15.00;99.90
16038;DHT22;8123;50.906;6.172;2023-07-13T04:22:18;15.10;99.90
16038;DHT22;8123;50.906;6.172;2023-07-13T04:24:43;15.20;99.90
16038;DHT22;8123;50.906;6.172;2023-07-13T04:27:09;15.30;99.90
16038;DHT22;8123;50.906;6.172;2023-07-13T04:29:35;15.40;99.90
16038;DHT22;8123;50.906;6.172;2023-07-13T04:32:00;15.30;99.90
16038;DHT22;8123;50.906;6.172;2023-07-13T04:34:26;15.20;99.90
16038;DHT22;8123;50.906;6.172;2023-07-13T04:36:52;15.20;99.90
16038;DHT22;8123;50.906;6.172;2023-07-13T04:39:17;15.30;99.90
16038;DHT22;8123;50.906;6.172;2023-07-13T04:41:43;15.30;99.90
16038;DHT22;8123;50.906;6.172;2023-07-13T04:44:09;15.60;99.90
16038;DHT22;8123;50.906;6.172;2023-07-13T04:46:34;15.80;99.90
16038;DHT22;8123;50.906;6.172;2023-07-13T04:49:00;15.90;99.90
16038;DHT22;8123;50.906;6.172;2023-07-13T04:51:26;15.90;99.90
16038;DHT22;8123;50.906;6.172;2023-07-13T04:53:52;15.90;99.90
16038;DHT22;8123;50.906;6.172;2023-07-13T04:56:18;15.80;99.90
16038;DHT22;8123;50.906;6.172;2023-07-13T04:58:45;15.80;99.90
16038;DHT22;8123;50.906;6.172;2023-07-13T05:01:10;15.80;99.90
16038;DHT22;8123;50.906;6.172;2023-07-13T05:03:36;15.90;99.90
16038;DHT22;8123;50.906;6.172;2023-07-13T05:06:05;16.10;99.90
16038;DHT22;8123;50.906;6.172;2023-07-13T05:08:31;16.10;99.90
16038;DHT22;8123;50.906;6.172;2023-07-13T05:11:00;16.20;99.90
16038;DHT22;8123;50.906;6.172;2023-07-13T05:13:26;16.20;99.90
16038;DHT22;8123;50.906;6.172;2023-07-13T05:16:00;16.20;99.90
16038;DHT22;8123;50.906;6.172;2023-07-13T05:18:26;16.20;99.90
16038;DHT22;8123;50.906;6.172;2023-07-13T05:21:03;16.10;99.90
16038;DHT22;8123;50.906;6.172;2023-07-13T05:23:30;16.10;99.90
16038;DHT22;8123;50.906;6.172;2023-07-13T05:25:57;16.10;99.90
16038;DHT22;8123;50.906;6.172;2023-07-13T05:28:25;16.20;99.90
16038;DHT22;8123;50.906;6.172;2023-07-13T05:30:51;16.20;99.90
16038;DHT22;8123;50.906;6.172;2023-07-13T05:33:17;16.30;99.90
16038;DHT22;8123;50.906;6.172;2023-07-13T05:35:43;16.30;99.90
16038;DHT22;8123;50.906;6.172;2023-07-13T05:38:08;16.20;99.90
16038;DHT22;8123;50.906;6.172;2023-07-13T05:40:34;16.20;99.90
16038;DHT22;8123;50.906;6.172;2023-07-13T05:43:00;16.20;99.90
16038;DHT22;8123;50.906;6.172;2023-07-13T05:45:26;16.20;99.90
16038;DHT22;8123;50.906;6.172;2023-07-13T05:47:52;16.20;99.90
16038;DHT22;8123;50.906;6.172;2023-07-13T05:50:17;16.20;99.90
16038;DHT22;8123;50.906;6.172;2023-07-13T05:52:43;16.20;99.90
16038;DHT22;8123;50.906;6.172;2023-07-13T05:55:09;16.30;99.90
16038;DHT22;8123;50.906;6.172;2023-07-13T05:57:34;16.40;99.90
16038;DHT22;8123;50.906;6.172;2023-07-13T06:00:00;16.40;99.90
16038;DHT22;8123;50.906;6.172;2023-07-13T06:02:27;16.60;99.90
16038;DHT22;8123;50.906;6.172;2023-07-13T06:04:52;16.60;99.90
16038;DHT22;8123;50.906;6.172;2023-07-13T06:07:18;16.60;99.90
16038;DHT22;8123;50.906;6.172;2023-07-13T06:09:44;16.70;99.90
16038;DHT22;8123;50.906;6.172;2023-07-13T06:12:09;16.80;99.90
16038;DHT22;8123;50.906;6.172;2023-07-13T06:14:35;16.80;99.90
16038;DHT22;8123;50.906;6.172;2023-07-13T06:17:01;16.90;99.90
16038;DHT22;8123;50.906;6.172;2023-07-13T06:19:26;16.90;99.90
16038;DHT22;8123;50.906;6.172;2023-07-13T06:21:52;16.80;99.90
16038;DHT22;8123;50.906;6.172;2023-07-13T06:24:18;16.80;99.90
16038;DHT22;8123;50.906;6.172;2023-07-13T06:26:43;16.80;99.90
16038;DHT22;8123;50.906;6.172;2023-07-13T06:29:09;16.80;99.90
16038;DHT22;8123;50.906;6.172;2023-07-13T06:31:34;16.70;99.90
16038;DHT22;8123;50.906;6.172;2023-07-13T06:34:00;16.60;99.90
16038;DHT22;8123;50.906;6.172;2023-07-13T06:36:26;16.60;99.90
16038;DHT22;8123;50.906;6.172;2023-07-13T06:38:51;16.60;99.90
16038;DHT22;8123;50.906;6.172;2023-07-13T06:41:17;16.60;99.90
16038;DHT22;8123;50.906;6.172;2023-07-13T06:43:42;16.80;99.90
16038;DHT22;8123;50.906;6.172;2023-07-13T06:46:08;16.80;99.90
16038;DHT22;8123;50.906;6.172;2023-07-13T06:48:35;16.80;99.90
16038;DHT22;8123;50.906;6.172;2023-07-13T06:51:02;16.80;99.90
16038;DHT22;8123;50.906;6.172;2023-07-13T06:53:27;16.80;99.90
16038;DHT22;8123;50.906;6.172;2023-07-13T06:55:53;16.80;99.90
16038;DHT22;8123;50.906;6.172;2023-07-13T06:58:19;16.80;99.90
16038;DHT22;8123;50.906;6.172;2023-07-13T07:00:45;16.80;99.90
16038;DHT22;8123;50.906;6.172;2023-07-13T07:03:11;16.90;99.90
16038;DHT22;8123;50.906;6.172;2023-07-13T07:05:36;16.90;99.90
16038;DHT22;8123;50.906;6.172;2023-07-13T07:08:02;16.90;99.90
16038;DHT22;8123;50.906;6.172;2023-07-13T07:10:30;17.00;99.90
16038;DHT22;8123;50.906;6.172;2023-07-13T07:12:55;17.00;99.90
16038;DHT22;8123;50.906;6.172;2023-07-13T07:15:21;17.10;99.90
16038;DHT22;8123;50.906;6.172;2023-07-13T07:17:47;17.10;99.90
16038;DHT22;8123;50.906;6.172;2023-07-13T07:20:12;17.20;99.90
16038;DHT22;8123;50.906;6.172;2023-07-13T07:22:38;17.30;99.90
16038;DHT22;8123;50.906;6.172;2023-07-13T07:25:04;17.30;99.90
16038;DHT22;8123;50.906;6.172;2023-07-13T07:27:30;17.30;99.90
16038;DHT22;8123;50.906;6.172;2023-07-13T07:29:55;17.30;99.90
16038;DHT22;8123;50.906;6.172;2023-07-13T07:32:23;17.40;99.90
16038;DHT22;8123;50.906;6.172;2023-07-13T07:34:49;17.40;99.90
16038;DHT22;8123;50.906;6.172;2023-07-13T07:37:15;17.50;99.90
16038;DHT22;8123;50.906;6.172;2023-07-13T07:39:42;17.50;99.90
16038;DHT22;8123;50.906;6.172;2023-07-13T07:42:08;17.50;99.90
16038;DHT22;8123;50.906;6.172;2023-07-13T07:44:34;17.60;99.90
16038;DHT22;8123;50.906;6.172;2023-07-13T07:47:00;17.70;99.90
16038;DHT22;8123;50.906;6.172;2023-07-13T07:49:26;17.70;99.90
16038;DHT22;8123;50.906;6.172;2023-07-13T07:51:52;17.80;99.90
16038;DHT22;8123;50.906;6.172;2023-07-13T07:54:17;17.90;99.90
16038;DHT22;8123;50.906;6.172;2023-07-13T07:56:43;18.00;99.90
16038;DHT22;8123;50.906;6.172;2023-07-13T07:59:09;18.00;99.90
16038;DHT22;8123;50.906;6.172;2023-07-13T08:01:35;18.10;99.90
16038;DHT22;8123;50.906;6.172;2023-07-13T08:04:00;18.20;99.90
16038;DHT22;8123;50.906;6.172;2023-07-13T08:06:27;18.20;99.90
16038;DHT22;8123;50.906;6.172;2023-07-13T08:08:52;18.20;99.90
16038;DHT22;8123;50.906;6.172;2023-07-13T08:11:18;18.20;99.90
16038;DHT22;8123;50.906;6.172;2023-07-13T08:13:44;18.20;99.90
16038;DHT22;8123;50.906;6.172;2023-07-13T08:16:10;18.30;99.90
16038;DHT22;8123;50.906;6.172;2023-07-13T08:18:37;18.30;99.90
16038;DHT22;8123;50.906;6.172;2023-07-13T08:21:06;18.30;99.90
16038;DHT22;8123;50.906;6.172;2023-07-13T08:23:33;18.30;99.90
16038;DHT22;8123;50.906;6.172;2023-07-13T08:25:58;18.30;99.90
16038;DHT22;8123;50.906;6.172;2023-07-13T08:28:27;18.50;99.90
16038;DHT22;8123;50.906;6.172;2023-07-13T08:30:52;18.60;99.90
16038;DHT22;8123;50.906;6.172;2023-07-13T08:33:19;18.60;99.90
16038;DHT22;8123;50.906;6.172;2023-07-13T08:35:48;18.60;99.90
16038;DHT22;8123;50.906;6.172;2023-07-13T08:38:15;18.60;99.90
16038;DHT22;8123;50.906;6.172;2023-07-13T08:40:42;18.60;99.90
16038;DHT22;8123;50.906;6.172;2023-07-13T08:43:20;18.70;99.90
16038;DHT22;8123;50.906;6.172;2023-07-13T08:45:54;18.80;99.90
16038;DHT22;8123;50.906;6.172;2023-07-13T08:48:28;18.80;99.90
16038;DHT22;8123;50.906;6.172;2023-07-13T08:51:04;18.80;99.90
16038;DHT22;8123;50.906;6.172;2023-07-13T08:53:46;18.90;99.90
16038;DHT22;8123;50.906;6.172;2023-07-13T08:56:21;19.00;99.90
16038;DHT22;8123;50.906;6.172;2023-07-13T08:58:53;18.90;99.90
16038;DHT22;8123;50.906;6.172;2023-07-13T09:01:44;18.90;99.90
16038;DHT22;8123;50.906;6.172;2023-07-13T09:04:16;19.10;99.90
16038;DHT22;8123;50.906;6.172;2023-07-13T09:12:15;19.00;99.90
16038;DHT22;8123;50.906;6.172;2023-07-13T09:17:29;18.90;99.90
16038;DHT22;8123;50.906;6.172;2023-07-13T09:20:04;19.00;99.90
16038;DHT22;8123;50.906;6.172;2023-07-13T09:22:36;19.00;99.90
16038;DHT22;8123;50.906;6.172;2023-07-13T09:25:32;19.10;99.90
16038;DHT22;8123;50.906;6.172;2023-07-13T09:28:15;19.20;99.90
16038;DHT22;8123;50.906;6.172;2023-07-13T09:31:16;19.40;99.90
16038;DHT22;8123;50.906;6.172;2023-07-13T09:33:42;19.60;97.00
16038;DHT22;8123;50.906;6.172;2023-07-13T09:36:22;19.50;99.90
16038;DHT22;8123;50.906;6.172;2023-07-13T09:42:01;19.60;99.90
16038;DHT22;8123;50.906;6.172;2023-07-13T09:44:31;19.80;99.90
16038;DHT22;8123;50.906;6.172;2023-07-13T09:46:59;19.80;99.00
16038;DHT22;8123;50.906;6.172;2023-07-13T09:49:32;19.80;95.90
16038;DHT22;8123;50.906;6.172;2023-07-13T09:52:01;19.70;97.30
16038;DHT22;8123;50.906;6.172;2023-07-13T09:54:28;19.60;95.80
16038;DHT22;8123;50.906;6.172;2023-07-13T09:56:58;19.60;97.50
16038;DHT22;8123;50.906;6.172;2023-07-13T09:59:29;19.60;98.30
16038;DHT22;8123;50.906;6.172;2023-07-13T10:01:55;19.60;99.90
16038;DHT22;8123;50.906;6.172;2023-07-13T10:04:33;19.80;99.90
16038;DHT22;8123;50.906;6.172;2023-07-13T10:07:07;19.90;97.20
16038;DHT22;8123;50.906;6.172;2023-07-13T10:09:33;20.30;98.30
16038;DHT22;8123;50.906;6.172;2023-07-13T10:11:59;20.20;88.20
16038;DHT22;8123;50.906;6.172;2023-07-13T10:14:25;20.10;81.20
16038;DHT22;8123;50.906;6.172;2023-07-13T10:17:00;20.20;82.50
16038;DHT22;8123;50.906;6.172;2023-07-13T10:19:32;20.40;79.80
16038;DHT22;8123;50.906;6.172;2023-07-13T10:22:02;20.60;81.80
16038;DHT22;8123;50.906;6.172;2023-07-13T10:24:36;20.60;80.10
16038;DHT22;8123;50.906;6.172;2023-07-13T10:27:16;20.40;78.00
16038;DHT22;8123;50.906;6.172;2023-07-13T10:32:35;20.50;72.10
16038;DHT22;8123;50.906;6.172;2023-07-13T10:35:01;20.50;68.50
16038;DHT22;8123;50.906;6.172;2023-07-13T10:37:39;20.50;66.70
16038;DHT22;8123;50.906;6.172;2023-07-13T10:40:12;20.70;68.50
16038;DHT22;8123;50.906;6.172;2023-07-13T10:42:43;20.80;63.30
16038;DHT22;8123;50.906;6.172;2023-07-13T10:45:17;20.80;59.30
16038;DHT22;8123;50.906;6.172;2023-07-13T10:47:44;21.00;57.80
16038;DHT22;8123;50.906;6.172;2023-07-13T10:50:29;21.10;56.70
16038;DHT22;8123;50.906;6.172;2023-07-13T10:53:15;21.20;53.10
16038;DHT22;8123;50.906;6.172;2023-07-13T10:58:21;21.20;52.60
16038;DHT22;8123;50.906;6.172;2023-07-13T11:03:46;21.00;51.00
16038;DHT22;8123;50.906;6.172;2023-07-13T11:06:17;20.90;48.70
16038;DHT22;8123;50.906;6.172;2023-07-13T11:18:52;21.40;44.90
16038;DHT22;8123;50.906;6.172;2023-07-13T11:21:27;21.40;42.20
16038;DHT22;8123;50.906;6.172;2023-07-13T11:24:01;21.30;41.20
16038;DHT22;8123;50.906;6.172;2023-07-13T11:26:43;21.40;40.70
16038;DHT22;8123;50.906;6.172;2023-07-13T11:31:55;21.70;41.00
16038;DHT22;8123;50.906;6.172;2023-07-13T11:34:27;21.80;37.30
16038;DHT22;8123;50.906;6.172;2023-07-13T11:36:56;21.50;36.40
16038;DHT22;8123;50.906;6.172;2023-07-13T11:39:30;21.30;36.90
16038;DHT22;8123;50.906;6.172;2023-07-13T11:42:00;21.20;37.80
16038;DHT22;8123;50.906;6.172;2023-07-13T11:44:29;21.30;37.60
16038;DHT22;8123;50.906;6.172;2023-07-13T11:46:59;21.30;37.30
16038;DHT22;8123;50.906;6.172;2023-07-13T11:49:28;21.30;38.00
16038;DHT22;8123;50.906;6.172;2023-07-13T11:51:54;21.30;36.80
16038;DHT22;8123;50.906;6.172;2023-07-13T11:56:51;21.40;38.70
16038;DHT22;8123;50.906;6.172;2023-07-13T11:59:18;21.50;37.30
16038;DHT22;8123;50.906;6.172;2023-07-13T12:01:47;21.50;32.90
16038;DHT22;8123;50.906;6.172;2023-07-13T12:04:30;21.50;34.60
16038;DHT22;8123;50.906;6.172;2023-07-13T12:07:05;21.60;32.00
16038;DHT22;8123;50.906;6.172;2023-07-13T12:09:33;21.70;29.70
16038;DHT22;8123;50.906;6.172;2023-07-13T12:12:02;21.70;29.40
16038;DHT22;8123;50.906;6.172;2023-07-13T12:14:27;21.70;28.60
16038;DHT22;8123;50.906;6.172;2023-07-13T12:16:54;21.70;28.80
16038;DHT22;8123;50.906;6.172;2023-07-13T12:19:26;21.80;28.10
16038;DHT22;8123;50.906;6.172;2023-07-13T12:21:55;21.80;28.20
16038;DHT22;8123;50.906;6.172;2023-07-13T12:24:22;21.80;26.40
16038;DHT22;8123;50.906;6.172;2023-07-13T12:29:18;22.00;26.30
16038;DHT22;8123;50.906;6.172;2023-07-13T12:31:46;22.10;25.90
16038;DHT22;8123;50.906;6.172;2023-07-13T12:34:15;22.20;25.70
16038;DHT22;8123;50.906;6.172;2023-07-13T12:36:53;22.10;20.80
16038;DHT22;8123;50.906;6.172;2023-07-13T12:42:24;22.10;18.70
16038;DHT22;8123;50.906;6.172;2023-07-13T12:45:23;22.00;18.20
16038;DHT22;8123;50.906;6.172;2023-07-13T12:48:04;22.00;18.30
16038;DHT22;8123;50.906;6.172;2023-07-13T12:50:38;22.00;19.40
16038;DHT22;8123;50.906;6.172;2023-07-13T12:53:12;21.90;18.50
16038;DHT22;8123;50.906;6.172;2023-07-13T12:55:48;22.00;20.80
16038;DHT22;8123;50.906;6.172;2023-07-13T12:58:36;22.10;19.60
16038;DHT22;8123;50.906;6.172;2023-07-13T13:01:03;22.10;20.70
16038;DHT22;8123;50.906;6.172;2023-07-13T13:03:35;22.10;20.60
16038;DHT22;8123;50.906;6.172;2023-07-13T13:08:35;22.20;19.20
16038;DHT22;8123;50.906;6.172;2023-07-13T13:11:02;22.30;19.90
16038;DHT22;8123;50.906;6.172;2023-07-13T13:13:27;22.40;17.00
16038;DHT22;8123;50.906;6.172;2023-07-13T13:15:54;22.30;17.10
16038;DHT22;8123;50.906;6.172;2023-07-13T13:18:21;22.20;18.70
16038;DHT22;8123;50.906;6.172;2023-07-13T13:20:49;22.20;17.30
16038;DHT22;8123;50.906;6.172;2023-07-13T13:23:19;22.20;17.50
16038;DHT22;8123;50.906;6.172;2023-07-13T13:25:50;22.10;18.00
16038;DHT22;8123;50.906;6.172;2023-07-13T13:28:18;22.10;17.80
16038;DHT22;8123;50.906;6.172;2023-07-13T13:30:46;22.00;16.30
16038;DHT22;8123;50.906;6.172;2023-07-13T13:33:15;22.00;17.30
16038;DHT22;8123;50.906;6.172;2023-07-13T13:35:42;22.10;19.40
16038;DHT22;8123;50.906;6.172;2023-07-13T13:38:13;22.10;17.80
16038;DHT22;8123;50.906;6.172;2023-07-13T13:40:43;22.20;17.50
16038;DHT22;8123;50.906;6.172;2023-07-13T13:43:22;22.30;16.50
16038;DHT22;8123;50.906;6.172;2023-07-13T13:45:56;22.20;16.70
16038;DHT22;8123;50.906;6.172;2023-07-13T13:48:31;22.20;18.50
16038;DHT22;8123;50.906;6.172;2023-07-13T13:50:57;22.30;18.60
16038;DHT22;8123;50.906;6.172;2023-07-13T13:53:24;22.40;18.90
16038;DHT22;8123;50.906;6.172;2023-07-13T13:55:50;22.50;17.50
16038;DHT22;8123;50.906;6.172;2023-07-13T13:58:17;22.50;18.30
16038;DHT22;8123;50.906;6.172;2023-07-13T14:00:43;22.60;16.80
16038;DHT22;8123;50.906;6.172;2023-07-13T14:03:15;22.60;13.90
16038;DHT22;8123;50.906;6.172;2023-07-13T14:05:42;22.80;14.40
16038;DHT22;8123;50.906;6.172;2023-07-13T14:08:16;22.90;12.40
16038;DHT22;8123;50.906;6.172;2023-07-13T14:10:42;22.80;11.60
16038;DHT22;8123;50.906;6.172;2023-07-13T14:15:42;22.80;11.90
16038;DHT22;8123;50.906;6.172;2023-07-13T14:18:09;22.70;9.00
16038;DHT22;8123;50.906;6.172;2023-07-13T14:20:34;22.60;8.80
16038;DHT22;8123;50.906;6.172;2023-07-13T14:23:00;22.50;10.30
16038;DHT22;8123;50.906;6.172;2023-07-13T14:25:25;22.40;9.90
16038;DHT22;8123;50.906;6.172;2023-07-13T14:27:57;22.40;10.10
16038;DHT22;8123;50.906;6.172;2023-07-13T14:30:33;22.30;9.70
16038;DHT22;8123;50.906;6.172;2023-07-13T14:32:58;22.30;11.50
16038;DHT22;8123;50.906;6.172;2023-07-13T14:35:24;22.40;10.60
16038;DHT22;8123;50.906;6.172;2023-07-13T14:37:51;22.40;11.40
16038;DHT22;8123;50.906;6.172;2023-07-13T14:40:21;22.50;11.50
16038;DHT22;8123;50.906;6.172;2023-07-13T14:42:49;22.30;10.90
16038;DHT22;8123;50.906;6.172;2023-07-13T14:45:16;22.20;10.70
16038;DHT22;8123;50.906;6.172;2023-07-13T14:47:43;22.10;12.00
16038;DHT22;8123;50.906;6.172;2023-07-13T14:50:19;22.10;11.90
16038;DHT22;8123;50.906;6.172;2023-07-13T14:52:46;22.10;12.50
16038;DHT22;8123;50.906;6.172;2023-07-13T14:55:15;22.10;12.80
16038;DHT22;8123;50.906;6.172;2023-07-13T14:57:41;22.10;13.30
16038;DHT22;8123;50.906;6.172;2023-07-13T15:02:41;21.90;19.40
16038;DHT22;8123;50.906;6.172;2023-07-13T15:05:14;21.50;22.40
16038;DHT22;8123;50.906;6.172;2023-07-13T15:07:41;21.30;27.70
16038;DHT22;8123;50.906;6.172;2023-07-13T15:10:22;21.10;30.80
16038;DHT22;8123;50.906;6.172;2023-07-13T15:12:48;20.80;36.60
16038;DHT22;8123;50.906;6.172;2023-07-13T15:15:14;20.60;41.30
16038;DHT22;8123;50.906;6.172;2023-07-13T15:17:40;20.50;44.00
16038;DHT22;8123;50.906;6.172;2023-07-13T15:22:41;20.30;50.00
16038;DHT22;8123;50.906;6.172;2023-07-13T15:25:15;20.20;51.50
16038;DHT22;8123;50.906;6.172;2023-07-13T15:27:41;20.20;54.00
16038;DHT22;8123;50.906;6.172;2023-07-13T15:30:07;20.10;55.60
16038;DHT22;8123;50.906;6.172;2023-07-13T15:32:34;20.00;55.70
16038;DHT22;8123;50.906;6.172;2023-07-13T15:35:00;20.00;57.00
16038;DHT22;8123;50.906;6.172;2023-07-13T15:37:25;19.90;59.30
16038;DHT22;8123;50.906;6.172;2023-07-13T15:39:51;19.80;65.30
16038;DHT22;8123;50.906;6.172;2023-07-13T15:42:18;19.80;69.50
16038;DHT22;8123;50.906;6.172;2023-07-13T15:44:44;19.70;75.40
16038;DHT22;8123;50.906;6.172;2023-07-13T15:47:15;19.80;77.90
16038;DHT22;8123;50.906;6.172;2023-07-13T15:49:42;19.90;73.00
16038;DHT22;8123;50.906;6.172;2023-07-13T15:52:18;20.00;70.20
16038;DHT22;8123;50.906;6.172;2023-07-13T15:54:47;20.00;66.60
16038;DHT22;8123;50.906;6.172;2023-07-13T15:57:13;19.90;65.40
16038;DHT22;8123;50.906;6.172;2023-07-13T15:59:39;20.10;64.40
16038;DHT22;8123;50.906;6.172;2023-07-13T16:02:19;20.20;59.40
16038;DHT22;8123;50.906;6.172;2023-07-13T16:04:46;20.30;59.70
16038;DHT22;8123;50.906;6.172;2023-07-13T16:07:14;20.40;51.10
16038;DHT22;8123;50.906;6.172;2023-07-13T16:09:41;20.50;49.60
16038;DHT22;8123;50.906;6.172;2023-07-13T16:12:11;20.50;49.10
16038;DHT22;8123;50.906;6.172;2023-07-13T16:14:38;20.50;47.40
16038;DHT22;8123;50.906;6.172;2023-07-13T16:17:05;20.60;46.70
16038;DHT22;8123;50.906;6.172;2023-07-13T16:19:32;20.70;45.30
16038;DHT22;8123;50.906;6.172;2023-07-13T16:21:59;20.70;40.80
16038;DHT22;8123;50.906;6.172;2023-07-13T16:24:26;20.80;40.60
16038;DHT22;8123;50.906;6.172;2023-07-13T16:26:52;21.00;38.50
16038;DHT22;8123;50.906;6.172;2023-07-13T16:29:25;21.20;34.00
16038;DHT22;8123;50.906;6.172;2023-07-13T16:32:06;21.40;34.20
16038;DHT22;8123;50.906;6.172;2023-07-13T16:34:34;21.40;31.50
16038;DHT22;8123;50.906;6.172;2023-07-13T16:37:01;21.50;30.90
16038;DHT22;8123;50.906;6.172;2023-07-13T16:39:30;21.60;30.00
16038;DHT22;8123;50.906;6.172;2023-07-13T16:41:58;21.70;30.00
16038;DHT22;8123;50.906;6.172;2023-07-13T16:44:45;21.70;31.30
16038;DHT22;8123;50.906;6.172;2023-07-13T16:47:30;21.80;29.80
16038;DHT22;8123;50.906;6.172;2023-07-13T16:54:08;21.90;29.40